sensor_id;sensor_type;location;lat;lon;timestamp;temperature;humidity
20376;DHT22;10347;51.828;6.466;2023-08-07T00:01:02;15.70;99.90
20376;DHT22;10347;51.828;6.466;2023-08-07T00:03:27;15.70;99.90
20376;DHT22;10347;51.828;6.466;2023-08-07T00:05:53;15.70;99.90
20376;DHT22;10347;51.828;6.466;2023-08-07T00:08:20;15.80;99.90
20376;DHT22;10347;51.828;6.466;2023-08-07T00:10:45;15.70;99.90
20376;DHT22;10347;51.828;6.466;2023-08-07T00:13:11;15.80;99.90
20376;DHT22;10347;51.828;6.466;2023-08-07T00:15:40;15.80;99.90
20376;DHT22;10347;51.828;6.466;2023-08-07T00:18:05;15.80;99.90
20376;DHT22;10347;51.828;6.466;2023-08-07T00:20:31;15.70;99.90
20376;DHT22;10347;51.828;6.466;2023-08-07T00:22:57;15.70;99.90
20376;DHT22;10347;51.828;6.466;2023-08-07T00:25:22;15.70;99.90
20376;DHT22;10347;51.828;6.466;2023-08-07T00:27:48;15.70;99.90
20376;DHT22;10347;51.828;6.466;2023-08-07T00:30:14;15.60;99.90
20376;DHT22;10347;51.828;6.466;2023-08-07T00:32:39;15.60;99.90
20376;DHT22;10347;51.828;6.466;2023-08-07T00:35:05;15.50;99.90
20376;DHT22;10347;51.828;6.466;2023-08-07T00:37:31;15.60;99.90
20376;DHT22;10347;51.828;6.466;2023-08-07T00:39:56;15.60;99.90
20376;DHT22;10347;51.828;6.466;2023-08-07T00:42:22;15.50;99.90
20376;DHT22;10347;51.828;6.466;2023-08-07T00:44:47;15.40;99.90
20376;DHT22;10347;51.828;6.466;2023-08-07T00:47:13;15.40;99.90
20376;DHT22;10347;51.828;6.466;2023-08-07T00:49:39;15.40;99.90
20376;DHT22;10347;51.828;6.466;2023-08-07T00:52:05;15.40;99.90
20376;DHT22;10347;51.828;6.466;2023-08-07T00:54:32;15.40;99.90
20376;DHT22;10347;51.828;6.466;2023-08-07T00:57:10;15.30;99.90
20376;DHT22;10347;51.828;6.466;2023-08-07T00:59:38;15.40;99.90
20376;DHT22;10347;51.828;6.466;2023-08-07T01:02:04;15.30;99.90
20376;DHT22;10347;51.828;6.466;2023-08-07T01:04:31;15.30;99.90
20376;DHT22;10347;51.828;6.466;2023-08-07T01:06:56;15.30;99.90
20376;DHT22;10347;51.828;6.466;2023-08-07T01:09:22;15.30;99.90
20376;DHT22;10347;51.828;6.466;2023-08-07T01:11:50;15.30;99.90
20376;DHT22;10347;51.828;6.466;2023-08-07T01:17:14;15.20;99.90
20376;DHT22;10347;51.828;6.466;2023-08-07T01:19:41;15.30;99.90
20376;DHT22;10347;51.828;6.466;2023-08-07T01:22:11;15.30;99.90
20376;DHT22;10347;51.828;6.466;2023-08-07T01:24:37;15.30;99.90
20376;DHT22;10347;51.828;6.466;2023-08-07T01:27:36;15.30;99.90
20376;DHT22;10347;51.828;6.466;2023-08-07T01:30:14;15.30;99.90
20376;DHT22;10347;51.828;6.466;2023-08-07T01:35:27;15.30;99.90
20376;DHT22;10347;51.828;6.466;2023-08-07T01:37:56;15.30;99.90
20376;DHT22;10347;51.828;6.466;2023-08-07T01:40:22;15.30;99.90
20376;DHT22;10347;51.828;6.466;2023-08-07T01:42:47;15.30;99.90
20376;DHT22;10347;51.828;6.466;2023-08-07T01:45:13;15.30;99.90
20376;DHT22;10347;51.828;6.466;2023-08-07T01:47:39;15.30;99.90
20376;DHT22;10347;51.828;6.466;2023-08-07T01:50:05;15.40;99.90
20376;DHT22;10347;51.828;6.466;2023-08-07T01:52:31;15.40;99.90
20376;DHT22;10347;51.828;6.466;2023-08-07T01:54:56;15.40;99.90
20376;DHT22;10347;51.828;6.466;2023-08-07T01:57:22;15.40;99.90
20376;DHT22;10347;51.828;6.466;2023-08-07T01:59:47;15.40;99.90
20376;DHT22;10347;51.828;6.466;2023-08-07T02:02:13;15.40;99.90
20376;DHT22;10347;51.828;6.466;2023-08-07T02:04:38;15.40;99.90
20376;DHT22;10347;51.828;6.466;2023-08-07T02:07:04;15.40;99.90
20376;DHT22;10347;51.828;6.466;2023-08-07T02:09:29;15.40;99.90
20376;DHT22;10347;51.828;6.466;2023-08-07T02:11:55;15.40;99.90
20376;DHT22;10347;51.828;6.466;2023-08-07T02:14:20;15.40;99.90
20376;DHT22;10347;51.828;6.466;2023-08-07T02:16:46;15.40;99.90
20376;DHT22;10347;51.828;6.466;2023-08-07T02:19:11;15.40;99.90
20376;DHT22;10347;51.828;6.466;2023-08-07T02:21:37;15.40;99.90
20376;DHT22;10347;51.828;6.466;2023-08-07T02:24:03;15.40;99.90
20376;DHT22;10347;51.828;6.466;2023-08-07T02:26:28;15.40;99.90
20376;DHT22;10347;51.828;6.466;2023-08-07T02:28:54;15.30;99.90
20376;DHT22;10347;51.828;6.466;2023-08-07T02:31:19;15.30;99.90
20376;DHT22;10347;51.828;6.466;2023-08-07T02:33:45;15.30;99.90
20376;DHT22;10347;51.828;6.466;2023-08-07T02:36:11;15.30;99.90
20376;DHT22;10347;51.828;6.466;2023-08-07T02:38:36;15.20;99.90
20376;DHT22;10347;51.828;6.466;2023-08-07T02:41:02;15.20;99.90
20376;DHT22;10347;51.828;6.466;2023-08-07T02:43:27;15.20;99.90
20376;DHT22;10347;51.828;6.466;2023-08-07T02:45:54;15.30;99.90
20376;DHT22;10347;51.828;6.466;2023-08-07T02:48:19;15.30;99.90
20376;DHT22;10347;51.828;6.466;2023-08-07T02:50:45;15.30;99.90
20376;DHT22;10347;51.828;6.466;2023-08-07T02:53:11;15.30;99.90
20376;DHT22;10347;51.828;6.466;2023-08-07T02:55:36;15.30;99.90
20376;DHT22;10347;51.828;6.466;2023-08-07T02:58:02;15.20;99.90
20376;DHT22;10347;51.828;6.466;2023-08-07T03:00:28;15.20;99.90
20376;DHT22;10347;51.828;6.466;2023-08-07T03:02:53;15.30;99.90
20376;DHT22;10347;51.828;6.466;2023-08-07T03:05:19;15.30;99.90
20376;DHT22;10347;51.828;6.466;2023-08-07T03:07:44;15.30;99.90
20376;DHT22;10347;51.828;6.466;2023-08-07T03:10:10;15.30;99.90
20376;DHT22;10347;51.828;6.466;2023-08-07T03:12:36;15.30;99.90
20376;DHT22;10347;51.828;6.466;2023-08-07T03:15:04;15.30;99.90
20376;DHT22;10347;51.828;6.466;2023-08-07T03:17:29;15.30;99.90
20376;DHT22;10347;51.828;6.466;2023-08-07T03:19:55;15.30;99.90
20376;DHT22;10347;51.828;6.466;2023-08-07T03:22:20;15.30;99.90
20376;DHT22;10347;51.828;6.466;2023-08-07T03:24:47;15.30;99.90
20376;DHT22;10347;51.828;6.466;2023-08-07T03:27:13;15.30;99.90
20376;DHT22;10347;51.828;6.466;2023-08-07T03:29:39;15.30;99.90
20376;DHT22;10347;51.828;6.466;2023-08-07T03:32:04;15.30;99.90
20376;DHT22;10347;51.828;6.466;2023-08-07T03:34:30;15.30;99.90
20376;DHT22;10347;51.828;6.466;2023-08-07T03:36:55;15.20;99.90
20376;DHT22;10347;51.828;6.466;2023-08-07T03:39:21;15.30;99.90
20376;DHT22;10347;51.828;6.466;2023-08-07T03:41:46;15.20;99.90
20376;DHT22;10347;51.828;6.466;2023-08-07T03:44:12;15.30;99.90
20376;DHT22;10347;51.828;6.466;2023-08-07T03:46:38;15.20;99.90
20376;DHT22;10347;51.828;6.466;2023-08-07T03:49:03;15.20;99.90
20376;DHT22;10347;51.828;6.466;2023-08-07T03:51:29;15.20;99.90
20376;DHT22;10347;51.828;6.466;2023-08-07T03:53:55;15.20;99.90
20376;DHT22;10347;51.828;6.466;2023-08-07T03:56:21;15.20;99.90
20376;DHT22;10347;51.828;6.466;2023-08-07T03:58:46;15.30;99.90
20376;DHT22;10347;51.828;6.466;2023-08-07T04:01:14;15.30;99.90
20376;DHT22;10347;51.828;6.466;2023-08-07T04:03:40;15.30;99.90
20376;DHT22;10347;51.828;6.466;2023-08-07T04:06:06;15.30;99.90
20376;DHT22;10347;51.828;6.466;2023-08-07T04:08:31;15.20;99.90
20376;DHT22;10347;51.828;6.466;2023-08-07T04:10:58;15.20;99.90
20376;DHT22;10347;51.828;6.466;2023-08-07T04:13:24;15.20;99.90
20376;DHT22;10347;51.828;6.466;2023-08-07T04:15:50;15.20;99.90
20376;DHT22;10347;51.828;6.466;2023-08-07T04:18:15;15.20;99.90
20376;DHT22;10347;51.828;6.466;2023-08-07T04:20:42;15.20;99.90
20376;DHT22;10347;51.828;6.466;2023-08-07T04:23:07;15.20;99.90
20376;DHT22;10347;51.828;6.466;2023-08-07T04:25:34;15.20;99.90
20376;DHT22;10347;51.828;6.466;2023-08-07T04:27:59;15.30;99.90
20376;DHT22;10347;51.828;6.466;2023-08-07T04:30:25;15.30;99.90
20376;DHT22;10347;51.828;6.466;2023-08-07T04:32:50;15.30;99.90
20376;DHT22;10347;51.828;6.466;2023-08-07T04:35:16;15.30;99.90
20376;DHT22;10347;51.828;6.466;2023-08-07T04:37:41;15.30;99.90
20376;DHT22;10347;51.828;6.466;2023-08-07T04:40:07;15.20;99.90
20376;DHT22;10347;51.828;6.466;2023-08-07T04:42:34;15.30;99.90
20376;DHT22;10347;51.828;6.466;2023-08-07T04:44:59;15.30;99.90
20376;DHT22;10347;51.828;6.466;2023-08-07T04:47:25;15.30;99.90
20376;DHT22;10347;51.828;6.466;2023-08-07T04:49:50;15.30;99.90
20376;DHT22;10347;51.828;6.466;2023-08-07T04:52:16;15.30;99.90
20376;DHT22;10347;51.828;6.466;2023-08-07T04:54:41;15.20;99.90
20376;DHT22;10347;51.828;6.466;2023-08-07T04:57:07;15.20;99.90
20376;DHT22;10347;51.828;6.466;2023-08-07T04:59:32;15.20;99.90
20376;DHT22;10347;51.828;6.466;2023-08-07T05:01:58;15.20;99.90
20376;DHT22;10347;51.828;6.466;2023-08-07T05:04:23;15.10;99.90
20376;DHT22;10347;51.828;6.466;2023-08-07T05:06:49;15.20;99.90
20376;DHT22;10347;51.828;6.466;2023-08-07T05:09:14;15.20;99.90
20376;DHT22;10347;51.828;6.466;2023-08-07T05:11:40;15.20;99.90
20376;DHT22;10347;51.828;6.466;2023-08-07T05:14:05;15.20;99.90
20376;DHT22;10347;51.828;6.466;2023-08-07T05:16:31;15.20;99.90
20376;DHT22;10347;51.828;6.466;2023-08-07T05:18:56;15.20;99.90
20376;DHT22;10347;51.828;6.466;2023-08-07T05:21:22;15.20;99.90
20376;DHT22;10347;51.828;6.466;2023-08-07T05:23:47;15.20;99.90
20376;DHT22;10347;51.828;6.466;2023-08-07T05:26:13;15.20;99.90
20376;DHT22;10347;51.828;6.466;2023-08-07T05:28:39;15.20;99.90
20376;DHT22;10347;51.828;6.466;2023-08-07T05:31:04;15.20;99.90
20376;DHT22;10347;51.828;6.466;2023-08-07T05:33:30;15.20;99.90
20376;DHT22;10347;51.828;6.466;2023-08-07T05:35:55;15.30;99.90
20376;DHT22;10347;51.828;6.466;2023-08-07T05:38:21;15.30;99.90
20376;DHT22;10347;51.828;6.466;2023-08-07T05:40:46;15.20;99.90
20376;DHT22;10347;51.828;6.466;2023-08-07T05:43:12;15.30;99.90
20376;DHT22;10347;51.828;6.466;2023-08-07T05:45:38;15.30;99.90
20376;DHT22;10347;51.828;6.466;2023-08-07T05:48:03;15.30;99.90
20376;DHT22;10347;51.828;6.466;2023-08-07T05:50:29;15.30;99.90
20376;DHT22;10347;51.828;6.466;2023-08-07T05:52:55;15.30;99.90
20376;DHT22;10347;51.828;6.466;2023-08-07T05:55:20;15.30;99.90
20376;DHT22;10347;51.828;6.466;2023-08-07T05:57:47;15.30;99.90
20376;DHT22;10347;51.828;6.466;2023-08-07T06:00:13;15.30;99.90
20376;DHT22;10347;51.828;6.466;2023-08-07T06:02:44;15.30;99.90
20376;DHT22;10347;51.828;6.466;2023-08-07T06:05:10;15.40;99.90
20376;DHT22;10347;51.828;6.466;2023-08-07T06:07:38;15.40;99.90
20376;DHT22;10347;51.828;6.466;2023-08-07T06:10:04;15.50;99.90
20376;DHT22;10347;51.828;6.466;2023-08-07T06:12:30;15.40;99.90
20376;DHT22;10347;51.828;6.466;2023-08-07T06:14:55;15.40;99.90
20376;DHT22;10347;51.828;6.466;2023-08-07T06:17:21;15.40;99.90
20376;DHT22;10347;51.828;6.466;2023-08-07T06:19:46;15.40;99.90
20376;DHT22;10347;51.828;6.466;2023-08-07T06:22:12;15.40;99.90
20376;DHT22;10347;51.828;6.466;2023-08-07T06:24:37;15.50;99.90
20376;DHT22;10347;51.828;6.466;2023-08-07T06:27:03;15.40;99.90
20376;DHT22;10347;51.828;6.466;2023-08-07T06:29:29;15.50;99.90
20376;DHT22;10347;51.828;6.466;2023-08-07T06:31:54;15.50;99.90
20376;DHT22;10347;51.828;6.466;2023-08-07T06:34:20;15.50;99.90
20376;DHT22;10347;51.828;6.466;2023-08-07T06:36:45;15.50;99.90
20376;DHT22;10347;51.828;6.466;2023-08-07T06:39:11;15.40;99.90
20376;DHT22;10347;51.828;6.466;2023-08-07T06:41:37;15.50;99.90
20376;DHT22;10347;51.828;6.466;2023-08-07T06:44:03;15.40;99.90
20376;DHT22;10347;51.828;6.466;2023-08-07T06:46:29;15.50;99.90
20376;DHT22;10347;51.828;6.466;2023-08-07T06:48:54;15.50;99.90
20376;DHT22;10347;51.828;6.466;2023-08-07T06:51:20;15.50;99.90
20376;DHT22;10347;51.828;6.466;2023-08-07T06:53:47;15.50;99.90
20376;DHT22;10347;51.828;6.466;2023-08-07T06:56:12;15.50;99.90
20376;DHT22;10347;51.828;6.466;2023-08-07T06:58:38;15.50;99.90
20376;DHT22;10347;51.828;6.466;2023-08-07T07:01:03;15.50;99.90
20376;DHT22;10347;51.828;6.466;2023-08-07T07:03:29;15.50;99.90
20376;DHT22;10347;51.828;6.466;2023-08-07T07:05:55;15.50;99.90
20376;DHT22;10347;51.828;6.466;2023-08-07T07:08:20;15.60;99.90
20376;DHT22;10347;51.828;6.466;2023-08-07T07:10:48;15.60;99.90
20376;DHT22;10347;51.828;6.466;2023-08-07T07:13:14;15.60;99.90
20376;DHT22;10347;51.828;6.466;2023-08-07T07:15:39;15.60;99.90
20376;DHT22;10347;51.828;6.466;2023-08-07T07:18:05;15.60;99.90
20376;DHT22;10347;51.828;6.466;2023-08-07T07:20:31;15.60;99.90
20376;DHT22;10347;51.828;6.466;2023-08-07T07:22:56;15.60;99.90
20376;DHT22;10347;51.828;6.466;2023-08-07T07:25:22;15.60;99.90
20376;DHT22;10347;51.828;6.466;2023-08-07T07:27:47;15.60;99.90
20376;DHT22;10347;51.828;6.466;2023-08-07T07:30:13;15.60;99.90
20376;DHT22;10347;51.828;6.466;2023-08-07T07:32:38;15.60;99.90
20376;DHT22;10347;51.828;6.466;2023-08-07T07:35:04;15.60;99.90
20376;DHT22;10347;51.828;6.466;2023-08-07T07:37:31;15.60;99.90
20376;DHT22;10347;51.828;6.466;2023-08-07T07:39:57;15.60;99.90
20376;DHT22;10347;51.828;6.466;2023-08-07T07:42:22;15.70;99.90
20376;DHT22;10347;51.828;6.466;2023-08-07T07:44:48;15.80;99.90
20376;DHT22;10347;51.828;6.466;2023-08-07T07:47:13;15.80;99.90
20376;DHT22;10347;51.828;6.466;2023-08-07T07:49:39;15.80;99.90
20376;DHT22;10347;51.828;6.466;2023-08-07T07:52:05;15.90;99.90
20376;DHT22;10347;51.828;6.466;2023-08-07T07:54:31;15.90;99.90
20376;DHT22;10347;51.828;6.466;2023-08-07T07:56:57;15.90;99.90
20376;DHT22;10347;51.828;6.466;2023-08-07T07:59:22;16.00;99.90
20376;DHT22;10347;51.828;6.466;2023-08-07T08:01:48;16.00;99.90
20376;DHT22;10347;51.828;6.466;2023-08-07T08:04:13;16.10;99.90
20376;DHT22;10347;51.828;6.466;2023-08-07T08:06:40;16.10;99.90
20376;DHT22;10347;51.828;6.466;2023-08-07T08:09:05;16.20;99.90
20376;DHT22;10347;51.828;6.466;2023-08-07T08:11:33;16.20;99.90
20376;DHT22;10347;51.828;6.466;2023-08-07T08:13:59;16.20;99.90
20376;DHT22;10347;51.828;6.466;2023-08-07T08:16:24;16.30;99.90
20376;DHT22;10347;51.828;6.466;2023-08-07T08:18:50;16.30;99.90
20376;DHT22;10347;51.828;6.466;2023-08-07T08:21:15;16.40;99.90
20376;DHT22;10347;51.828;6.466;2023-08-07T08:23:41;16.40;99.90
20376;DHT22;10347;51.828;6.466;2023-08-07T08:26:06;16.40;99.90
20376;DHT22;10347;51.828;6.466;2023-08-07T08:28:32;16.50;99.90
20376;DHT22;10347;51.828;6.466;2023-08-07T08:31:00;16.60;99.90
20376;DHT22;10347;51.828;6.466;2023-08-07T08:33:26;16.60;99.90
20376;DHT22;10347;51.828;6.466;2023-08-07T08:35:52;16.60;99.90
20376;DHT22;10347;51.828;6.466;2023-08-07T08:38:17;16.70;99.90
20376;DHT22;10347;51.828;6.466;2023-08-07T08:40:44;16.60;99.90
20376;DHT22;10347;51.828;6.466;2023-08-07T08:43:12;16.70;99.90
20376;DHT22;10347;51.828;6.466;2023-08-07T08:45:39;16.80;99.90
20376;DHT22;10347;51.828;6.466;2023-08-07T08:48:07;16.90;99.90
20376;DHT22;10347;51.828;6.466;2023-08-07T08:50:34;16.90;99.90
20376;DHT22;10347;51.828;6.466;2023-08-07T08:53:02;16.90;99.90
20376;DHT22;10347;51.828;6.466;2023-08-07T08:55:28;17.00;99.90
20376;DHT22;10347;51.828;6.466;2023-08-07T08:57:54;17.00;99.90
20376;DHT22;10347;51.828;6.466;2023-08-07T09:00:21;17.00;99.90
20376;DHT22;10347;51.828;6.466;2023-08-07T09:02:51;16.90;99.90
20376;DHT22;10347;51.828;6.466;2023-08-07T09:05:19;16.70;99.90
20376;DHT22;10347;51.828;6.466;2023-08-07T09:07:48;16.70;99.90
20376;DHT22;10347;51.828;6.466;2023-08-07T09:10:14;16.70;99.90
20376;DHT22;10347;51.828;6.466;2023-08-07T09:12:53;16.60;99.90
20376;DHT22;10347;51.828;6.466;2023-08-07T09:15:20;16.60;99.90
20376;DHT22;10347;51.828;6.466;2023-08-07T09:17:47;16.70;99.90
20376;DHT22;10347;51.828;6.466;2023-08-07T09:20:14;16.70;99.90
20376;DHT22;10347;51.828;6.466;2023-08-07T09:22:41;16.70;99.90
20376;DHT22;10347;51.828;6.466;2023-08-07T09:25:07;16.90;99.90
20376;DHT22;10347;51.828;6.466;2023-08-07T09:27:38;17.00;99.90
20376;DHT22;10347;51.828;6.466;2023-08-07T09:30:05;17.10;99.90
20376;DHT22;10347;51.828;6.466;2023-08-07T09:32:32;17.10;99.90
20376;DHT22;10347;51.828;6.466;2023-08-07T09:34:57;17.20;99.90
20376;DHT22;10347;51.828;6.466;2023-08-07T09:37:23;17.20;99.90
20376;DHT22;10347;51.828;6.466;2023-08-07T09:39:49;17.20;99.90
20376;DHT22;10347;51.828;6.466;2023-08-07T09:42:16;17.30;99.90
20376;DHT22;10347;51.828;6.466;2023-08-07T09:44:42;17.40;99.90
20376;DHT22;10347;51.828;6.466;2023-08-07T09:47:14;17.40;99.90
20376;DHT22;10347;51.828;6.466;2023-08-07T09:49:40;17.40;99.90
20376;DHT22;10347;51.828;6.466;2023-08-07T09:52:08;17.40;99.90
20376;DHT22;10347;51.828;6.466;2023-08-07T09:54:34;17.40;99.90
20376;DHT22;10347;51.828;6.466;2023-08-07T09:57:01;17.40;99.90
20376;DHT22;10347;51.828;6.466;2023-08-07T09:59:27;17.40;99.90
20376;DHT22;10347;51.828;6.466;2023-08-07T10:01:54;17.40;99.90
20376;DHT22;10347;51.828;6.466;2023-08-07T10:04:24;17.40;99.90
20376;DHT22;10347;51.828;6.466;2023-08-07T10:06:51;17.50;99.90
20376;DHT22;10347;51.828;6.466;2023-08-07T10:09:16;17.50;99.90
20376;DHT22;10347;51.828;6.466;2023-08-07T10:11:42;17.60;99.90
20376;DHT22;10347;51.828;6.466;2023-08-07T10:14:13;17.70;99.90
20376;DHT22;10347;51.828;6.466;2023-08-07T10:16:40;17.80;99.90
20376;DHT22;10347;51.828;6.466;2023-08-07T10:19:07;17.80;99.90
20376;DHT22;10347;51.828;6.466;2023-08-07T10:21:37;17.90;99.90
20376;DHT22;10347;51.828;6.466;2023-08-07T10:24:04;17.90;99.90
20376;DHT22;10347;51.828;6.466;2023-08-07T10:26:34;17.90;99.90
20376;DHT22;10347;51.828;6.466;2023-08-07T10:29:02;18.00;99.90
20376;DHT22;10347;51.828;6.466;2023-08-07T10:31:30;18.00;99.90
20376;DHT22;10347;51.828;6.466;2023-08-07T10:33:57;18.00;99.90
20376;DHT22;10347;51.828;6.466;2023-08-07T10:36:23;18.00;99.90
20376;DHT22;10347;51.828;6.466;2023-08-07T10:39:09;18.10;99.90
20376;DHT22;10347;51.828;6.466;2023-08-07T10:41:39;18.00;99.90
20376;DHT22;10347;51.828;6.466;2023-08-07T10:44:05;18.10;99.90
20376;DHT22;10347;51.828;6.466;2023-08-07T10:46:47;18.10;99.90
20376;DHT22;10347;51.828;6.466;2023-08-07T10:51:59;18.20;99.90
20376;DHT22;10347;51.828;6.466;2023-08-07T10:54:25;18.30;99.90
20376;DHT22;10347;51.828;6.466;2023-08-07T10:56:54;18.40;99.90
20376;DHT22;10347;51.828;6.466;2023-08-07T10:59:22;18.40;99.90
20376;DHT22;10347;51.828;6.466;2023-08-07T11:01:54;18.50;99.90
20376;DHT22;10347;51.828;6.466;2023-08-07T11:04:22;18.50;99.90
20376;DHT22;10347;51.828;6.466;2023-08-07T11:06:50;18.60;99.90
20376;DHT22;10347;51.828;6.466;2023-08-07T11:09:16;18.60;99.90
20376;DHT22;10347;51.828;6.466;2023-08-07T11:11:46;18.60;99.90
20376;DHT22;10347;51.828;6.466;2023-08-07T11:16:39;18.50;99.90
20376;DHT22;10347;51.828;6.466;2023-08-07T11:19:05;18.50;99.90
20376;DHT22;10347;51.828;6.466;2023-08-07T11:21:31;18.50;99.90
20376;DHT22;10347;51.828;6.466;2023-08-07T11:23:57;18.50;99.90
20376;DHT22;10347;51.828;6.466;2023-08-07T11:26:23;18.50;99.90
20376;DHT22;10347;51.828;6.466;2023-08-07T11:28:51;18.50;99.90
20376;DHT22;10347;51.828;6.466;2023-08-07T11:31:21;18.50;99.90
20376;DHT22;10347;51.828;6.466;2023-08-07T11:33:49;18.50;99.90
20376;DHT22;10347;51.828;6.466;2023-08-07T11:36:15;18.50;99.90
20376;DHT22;10347;51.828;6.466;2023-08-07T11:38:42;18.60;99.90
20376;DHT22;10347;51.828;6.466;2023-08-07T11:41:12;18.60;99.90
20376;DHT22;10347;51.828;6.466;2023-08-07T11:43:38;18.70;99.90
20376;DHT22;10347;51.828;6.466;2023-08-07T11:46:06;18.80;99.90
20376;DHT22;10347;51.828;6.466;2023-08-07T11:48:33;18.80;99.90
20376;DHT22;10347;51.828;6.466;2023-08-07T11:51:00;18.80;99.90
20376;DHT22;10347;51.828;6.466;2023-08-07T11:53:29;18.90;99.90
20376;DHT22;10347;51.828;6.466;2023-08-07T11:55:57;18.90;99.90
20376;DHT22;10347;51.828;6.466;2023-08-07T11:58:43;19.00;99.90
20376;DHT22;10347;51.828;6.466;2023-08-07T12:03:42;19.10;99.90
20376;DHT22;10347;51.828;6.466;2023-08-07T12:06:09;19.10;99.90
20376;DHT22;10347;51.828;6.466;2023-08-07T12:08:36;19.10;99.90
20376;DHT22;10347;51.828;6.466;2023-08-07T12:11:03;19.20;99.90
20376;DHT22;10347;51.828;6.466;2023-08-07T12:13:30;19.10;99.90
20376;DHT22;10347;51.828;6.466;2023-08-07T12:15:57;19.20;99.90
20376;DHT22;10347;51.828;6.466;2023-08-07T12:18:24;19.30;99.90
20376;DHT22;10347;51.828;6.466;2023-08-07T12:21:01;19.30;99.90
20376;DHT22;10347;51.828;6.466;2023-08-07T12:23:26;19.40;99.90
20376;DHT22;10347;51.828;6.466;2023-08-07T12:25:53;19.40;99.90
20376;DHT22;10347;51.828;6.466;2023-08-07T12:28:19;19.40;99.90
20376;DHT22;10347;51.828;6.466;2023-08-07T12:30:48;19.30;99.90
20376;DHT22;10347;51.828;6.466;2023-08-07T12:33:14;19.20;99.90
20376;DHT22;10347;51.828;6.466;2023-08-07T12:35:40;19.20;99.90
20376;DHT22;10347;51.828;6.466;2023-08-07T12:38:06;19.20;99.90
20376;DHT22;10347;51.828;6.466;2023-08-07T12:40:32;19.30;99.90
20376;DHT22;10347;51.828;6.466;2023-08-07T12:42:58;19.30;99.90
20376;DHT22;10347;51.828;6.466;2023-08-07T12:45:24;19.40;99.90
20376;DHT22;10347;51.828;6.466;2023-08-07T12:47:50;19.40;99.90
20376;DHT22;10347;51.828;6.466;2023-08-07T12:50:16;19.30;99.90
20376;DHT22;10347;51.828;6.466;2023-08-07T12:52:41;19.10;99.90
20376;DHT22;10347;51.828;6.466;2023-08-07T12:55:07;19.00;99.90
20376;DHT22;10347;51.828;6.466;2023-08-07T12:57:33;18.90;99.90
20376;DHT22;10347;51.828;6.466;2023-08-07T12:59:59;18.90;99.90
20376;DHT22;10347;51.828;6.466;2023-08-07T13:02:24;19.00;99.90
20376;DHT22;10347;51.828;6.466;2023-08-07T13:04:50;19.00;99.90
20376;DHT22;10347;51.828;6.466;2023-08-07T13:07:16;19.00;99.90
20376;DHT22;10347;51.828;6.466;2023-08-07T13:09:42;19.00;99.90
20376;DHT22;10347;51.828;6.466;2023-08-07T13:12:08;19.10;99.90
20376;DHT22;10347;51.828;6.466;2023-08-07T13:14:33;19.10;99.90
20376;DHT22;10347;51.828;6.466;2023-08-07T13:16:59;19.10;99.90
20376;DHT22;10347;51.828;6.466;2023-08-07T13:19:24;19.20;99.90
20376;DHT22;10347;51.828;6.466;2023-08-07T13:21:50;19.10;99.90
20376;DHT22;10347;51.828;6.466;2023-08-07T13:24:15;19.10;99.90
20376;DHT22;10347;51.828;6.466;2023-08-07T13:26:41;19.10;99.90
20376;DHT22;10347;51.828;6.466;2023-08-07T13:29:13;19.10;99.90
20376;DHT22;10347;51.828;6.466;2023-08-07T13:31:39;19.10;99.90
20376;DHT22;10347;51.828;6.466;2023-08-07T13:34:07;19.10;99.90
20376;DHT22;10347;51.828;6.466;2023-08-07T13:36:35;19.10;99.90
20376;DHT22;10347;51.828;6.466;2023-08-07T13:39:01;19.10;99.90
20376;DHT22;10347;51.828;6.466;2023-08-07T13:41:27;19.10;99.90
20376;DHT22;10347;51.828;6.466;2023-08-07T13:43:52;19.10;99.90
20376;DHT22;10347;51.828;6.466;2023-08-07T13:46:18;19.10;99.90
20376;DHT22;10347;51.828;6.466;2023-08-07T13:48:47;19.20;99.90
20376;DHT22;10347;51.828;6.466;2023-08-07T13:51:14;19.20;99.90
20376;DHT22;10347;51.828;6.466;2023-08-07T13:53:39;19.20;99.90
20376;DHT22;10347;51.828;6.466;2023-08-07T13:56:05;19.20;99.90
20376;DHT22;10347;51.828;6.466;2023-08-07T13:58:31;19.20;99.90
20376;DHT22;10347;51.828;6.466;2023-08-07T14:00:57;19.30;99.90
20376;DHT22;10347;51.828;6.466;2023-08-07T14:03:23;19.40;99.90
20376;DHT22;10347;51.828;6.466;2023-08-07T14:05:49;19.50;99.90
20376;DHT22;10347;51.828;6.466;2023-08-07T14:08:15;19.50;99.90
20376;DHT22;10347;51.828;6.466;2023-08-07T14:10:41;19.70;99.90
20376;DHT22;10347;51.828;6.466;2023-08-07T14:13:07;19.70;99.90
20376;DHT22;10347;51.828;6.466;2023-08-07T14:15:33;19.80;99.90
20376;DHT22;10347;51.828;6.466;2023-08-07T14:17:59;19.80;99.90
20376;DHT22;10347;51.828;6.466;2023-08-07T14:20:25;19.90;99.90
20376;DHT22;10347;51.828;6.466;2023-08-07T14:22:50;19.90;99.90
20376;DHT22;10347;51.828;6.466;2023-08-07T14:25:16;20.00;99.90
20376;DHT22;10347;51.828;6.466;2023-08-07T14:27:42;20.00;99.90
20376;DHT22;10347;51.828;6.466;2023-08-07T14:30:08;20.10;99.90
20376;DHT22;10347;51.828;6.466;2023-08-07T14:32:33;20.10;99.90
20376;DHT22;10347;51.828;6.466;2023-08-07T14:34:59;20.20;99.90
20376;DHT22;10347;51.828;6.466;2023-08-07T14:37:24;20.20;99.90
20376;DHT22;10347;51.828;6.466;2023-08-07T14:39:50;20.20;99.90
20376;DHT22;10347;51.828;6.466;2023-08-07T14:42:16;20.20;99.90
20376;DHT22;10347;51.828;6.466;2023-08-07T14:44:41;20.20;99.90
20376;DHT22;10347;51.828;6.466;2023-08-07T14:47:07;20.30;99.90
20376;DHT22;10347;51.828;6.466;2023-08-07T14:49:32;20.40;99.90
20376;DHT22;10347;51.828;6.466;2023-08-07T14:51:58;20.40;99.90
20376;DHT22;10347;51.828;6.466;2023-08-07T14:54:23;20.40;99.90
20376;DHT22;10347;51.828;6.466;2023-08-07T14:56:49;20.40;99.90
20376;DHT22;10347;51.828;6.466;2023-08-07T14:59:15;20.40;99.90
20376;DHT22;10347;51.828;6.466;2023-08-07T15:01:40;20.40;99.90
20376;DHT22;10347;51.828;6.466;2023-08-07T15:04:06;20.40;99.90
20376;DHT22;10347;51.828;6.466;2023-08-07T15:06:32;20.40;99.90
20376;DHT22;10347;51.828;6.466;2023-08-07T15:08:58;20.40;99.90
20376;DHT22;10347;51.828;6.466;2023-08-07T15:11:24;20.50;99.90
20376;DHT22;10347;51.828;6.466;2023-08-07T15:13:49;20.60;99.90
20376;DHT22;10347;51.828;6.466;2023-08-07T15:16:15;20.60;99.90
20376;DHT22;10347;51.828;6.466;2023-08-07T15:18:40;20.70;99.90
20376;DHT22;10347;51.828;6.466;2023-08-07T15:21:06;20.80;99.90
20376;DHT22;10347;51.828;6.466;2023-08-07T15:23:32;20.80;99.90
20376;DHT22;10347;51.828;6.466;2023-08-07T15:25:58;20.80;99.90
20376;DHT22;10347;51.828;6.466;2023-08-07T15:28:23;20.80;99.90
20376;DHT22;10347;51.828;6.466;2023-08-07T15:30:50;20.80;99.90
20376;DHT22;10347;51.828;6.466;2023-08-07T15:33:16;20.80;99.90
20376;DHT22;10347;51.828;6.466;2023-08-07T15:35:42;20.70;99.90
20376;DHT22;10347;51.828;6.466;2023-08-07T15:38:08;20.60;99.90